Terminal Aerodrome Forecast
Issued by NWS Shreveport, LA

Current Version | Previous Version | Text Only | Print | Product List | Glossary On
Versions: 1 2 3 4 5 6 7 8 9 10 11 12 13 14 15
000
FTUS44 KSHV 222342
TAFTXK
TAF
KTXK 222342Z 2300/2324 34008KT P6SM SCT040 SCT050
     FM230300 32005KT P6SM SKC
     FM231500 27008KT P6SM SKC
     FM231900 26011G17KT P6SM SKC
     FM232300 27011KT P6SM SKC=

USA.gov is the U.S. government's official web portal to all federal, state and local government web resources and services.